sensor_id;sensor_type;location;lat;lon;timestamp;P1;durP1;ratioP1;P2;durP2;ratioP2
10863;SDS011;5485;37.558;126.950;2023-06-10T00:01:42;14.55;;;13.20;;
10863;SDS011;5485;37.558;126.950;2023-06-10T00:04:13;14.95;;;12.98;;
10863;SDS011;5485;37.558;126.950;2023-06-10T00:06:43;13.35;;;11.93;;
10863;SDS011;5485;37.558;126.950;2023-06-10T00:09:10;13.15;;;11.85;;
10863;SDS011;5485;37.558;126.950;2023-06-10T00:11:38;13.80;;;12.45;;
10863;SDS011;5485;37.558;126.950;2023-06-10T00:14:05;13.43;;;12.15;;
10863;SDS011;5485;37.558;126.950;2023-06-10T00:16:32;13.73;;;12.20;;
10863;SDS011;5485;37.558;126.950;2023-06-10T00:19:01;16.38;;;11.98;;
10863;SDS011;5485;37.558;126.950;2023-06-10T00:21:32;13.82;;;12.38;;
10863;SDS011;5485;37.558;126.950;2023-06-10T00:24:06;16.33;;;13.63;;
10863;SDS011;5485;37.558;126.950;2023-06-10T00:26:39;14.50;;;11.85;;
10863;SDS011;5485;37.558;126.950;2023-06-10T00:29:07;13.55;;;12.10;;
10863;SDS011;5485;37.558;126.950;2023-06-10T00:31:34;17.10;;;12.35;;
10863;SDS011;5485;37.558;126.950;2023-06-10T00:34:02;13.07;;;11.68;;
10863;SDS011;5485;37.558;126.950;2023-06-10T00:36:31;14.27;;;11.90;;
10863;SDS011;5485;37.558;126.950;2023-06-10T00:38:58;17.15;;;12.45;;
10863;SDS011;5485;37.558;126.950;2023-06-10T00:41:25;12.68;;;11.38;;
10863;SDS011;5485;37.558;126.950;2023-06-10T00:43:56;12.32;;;11.02;;
10863;SDS011;5485;37.558;126.950;2023-06-10T00:46:23;12.35;;;11.20;;
10863;SDS011;5485;37.558;126.950;2023-06-10T00:48:52;14.23;;;10.43;;
10863;SDS011;5485;37.558;126.950;2023-06-10T00:51:19;11.75;;;10.55;;
10863;SDS011;5485;37.558;126.950;2023-06-10T00:53:48;13.63;;;10.68;;
10863;SDS011;5485;37.558;126.950;2023-06-10T00:56:15;11.95;;;9.98;;
10863;SDS011;5485;37.558;126.950;2023-06-10T00:58:42;14.40;;;9.73;;
10863;SDS011;5485;37.558;126.950;2023-06-10T01:01:09;12.95;;;9.30;;
10863;SDS011;5485;37.558;126.950;2023-06-10T01:03:39;10.82;;;8.80;;
10863;SDS011;5485;37.558;126.950;2023-06-10T01:06:51;14.07;;;10.13;;
10863;SDS011;5485;37.558;126.950;2023-06-10T01:12:29;13.13;;;10.07;;
10863;SDS011;5485;37.558;126.950;2023-06-10T01:14:52;14.68;;;10.20;;
10863;SDS011;5485;37.558;126.950;2023-06-10T01:17:19;9.63;;;8.60;;
10863;SDS011;5485;37.558;126.950;2023-06-10T01:19:54;13.25;;;8.00;;
10863;SDS011;5485;37.558;126.950;2023-06-10T01:22:25;10.80;;;8.02;;
10863;SDS011;5485;37.558;126.950;2023-06-10T01:24:57;11.05;;;8.35;;
10863;SDS011;5485;37.558;126.950;2023-06-10T01:27:26;9.23;;;6.68;;
10863;SDS011;5485;37.558;126.950;2023-06-10T01:29:58;9.15;;;7.03;;
10863;SDS011;5485;37.558;126.950;2023-06-10T01:32:40;9.43;;;7.30;;
10863;SDS011;5485;37.558;126.950;2023-06-10T01:35:10;11.57;;;8.15;;
10863;SDS011;5485;37.558;126.950;2023-06-10T01:37:38;10.45;;;7.22;;
10863;SDS011;5485;37.558;126.950;2023-06-10T01:40:06;11.98;;;8.02;;
10863;SDS011;5485;37.558;126.950;2023-06-10T01:42:37;10.00;;;8.38;;
10863;SDS011;5485;37.558;126.950;2023-06-10T01:45:04;10.60;;;8.23;;
10863;SDS011;5485;37.558;126.950;2023-06-10T01:47:31;9.27;;;8.02;;
10863;SDS011;5485;37.558;126.950;2023-06-10T01:49:58;14.20;;;7.90;;
10863;SDS011;5485;37.558;126.950;2023-06-10T01:52:27;13.40;;;8.27;;
10863;SDS011;5485;37.558;126.950;2023-06-10T01:54:54;14.38;;;9.07;;
10863;SDS011;5485;37.558;126.950;2023-06-10T01:57:23;11.45;;;8.50;;
10863;SDS011;5485;37.558;126.950;2023-06-10T01:59:51;11.85;;;8.52;;
10863;SDS011;5485;37.558;126.950;2023-06-10T02:02:18;10.73;;;8.07;;
10863;SDS011;5485;37.558;126.950;2023-06-10T02:04:47;11.85;;;8.82;;
10863;SDS011;5485;37.558;126.950;2023-06-10T02:07:14;12.15;;;8.35;;
10863;SDS011;5485;37.558;126.950;2023-06-10T02:09:41;13.13;;;9.88;;
10863;SDS011;5485;37.558;126.950;2023-06-10T02:12:08;12.07;;;10.73;;
10863;SDS011;5485;37.558;126.950;2023-06-10T02:14:35;11.05;;;9.48;;
10863;SDS011;5485;37.558;126.950;2023-06-10T02:17:03;10.10;;;9.10;;
10863;SDS011;5485;37.558;126.950;2023-06-10T02:19:30;12.23;;;9.45;;
10863;SDS011;5485;37.558;126.950;2023-06-10T02:21:57;11.63;;;9.02;;
10863;SDS011;5485;37.558;126.950;2023-06-10T02:24:30;13.45;;;8.85;;
10863;SDS011;5485;37.558;126.950;2023-06-10T02:26:57;11.63;;;9.40;;
10863;SDS011;5485;37.558;126.950;2023-06-10T02:29:25;12.93;;;9.75;;
10863;SDS011;5485;37.558;126.950;2023-06-10T02:31:52;10.80;;;9.70;;
10863;SDS011;5485;37.558;126.950;2023-06-10T02:34:19;11.40;;;9.07;;
10863;SDS011;5485;37.558;126.950;2023-06-10T02:36:46;13.52;;;9.82;;
10863;SDS011;5485;37.558;126.950;2023-06-10T02:39:16;13.23;;;9.73;;
10863;SDS011;5485;37.558;126.950;2023-06-10T02:41:43;12.80;;;10.07;;
10863;SDS011;5485;37.558;126.950;2023-06-10T02:44:10;11.18;;;9.68;;
10863;SDS011;5485;37.558;126.950;2023-06-10T02:46:37;11.18;;;9.60;;
10863;SDS011;5485;37.558;126.950;2023-06-10T02:49:04;11.02;;;9.43;;
10863;SDS011;5485;37.558;126.950;2023-06-10T02:51:32;11.40;;;8.68;;
10863;SDS011;5485;37.558;126.950;2023-06-10T02:53:59;12.25;;;9.27;;
10863;SDS011;5485;37.558;126.950;2023-06-10T02:56:25;9.93;;;8.93;;
10863;SDS011;5485;37.558;126.950;2023-06-10T02:58:52;10.30;;;8.75;;
10863;SDS011;5485;37.558;126.950;2023-06-10T03:01:19;14.20;;;8.70;;
10863;SDS011;5485;37.558;126.950;2023-06-10T03:03:46;15.05;;;9.15;;
10863;SDS011;5485;37.558;126.950;2023-06-10T03:06:15;14.10;;;9.38;;
10863;SDS011;5485;37.558;126.950;2023-06-10T03:08:44;11.90;;;8.23;;
10863;SDS011;5485;37.558;126.950;2023-06-10T03:11:13;11.13;;;8.82;;
10863;SDS011;5485;37.558;126.950;2023-06-10T03:13:40;13.73;;;8.68;;
10863;SDS011;5485;37.558;126.950;2023-06-10T03:16:07;11.60;;;8.60;;
10863;SDS011;5485;37.558;126.950;2023-06-10T03:18:34;11.32;;;8.65;;
10863;SDS011;5485;37.558;126.950;2023-06-10T03:21:03;8.98;;;7.53;;
10863;SDS011;5485;37.558;126.950;2023-06-10T03:23:34;10.90;;;9.00;;
10863;SDS011;5485;37.558;126.950;2023-06-10T03:26:01;15.38;;;9.13;;
10863;SDS011;5485;37.558;126.950;2023-06-10T03:28:31;11.77;;;8.75;;
10863;SDS011;5485;37.558;126.950;2023-06-10T03:30:57;10.43;;;8.75;;
10863;SDS011;5485;37.558;126.950;2023-06-10T03:33:24;9.65;;;8.25;;
10863;SDS011;5485;37.558;126.950;2023-06-10T03:35:52;12.18;;;8.27;;
10863;SDS011;5485;37.558;126.950;2023-06-10T03:38:19;15.02;;;8.65;;
10863;SDS011;5485;37.558;126.950;2023-06-10T03:40:46;9.35;;;8.18;;
10863;SDS011;5485;37.558;126.950;2023-06-10T03:43:13;10.35;;;8.35;;
10863;SDS011;5485;37.558;126.950;2023-06-10T03:45:41;8.65;;;7.78;;
10863;SDS011;5485;37.558;126.950;2023-06-10T03:48:07;11.32;;;8.15;;
10863;SDS011;5485;37.558;126.950;2023-06-10T03:50:35;10.73;;;8.20;;
10863;SDS011;5485;37.558;126.950;2023-06-10T03:53:02;9.43;;;7.82;;
10863;SDS011;5485;37.558;126.950;2023-06-10T03:55:29;9.82;;;7.20;;
10863;SDS011;5485;37.558;126.950;2023-06-10T03:57:56;11.77;;;8.32;;
10863;SDS011;5485;37.558;126.950;2023-06-10T04:00:23;14.07;;;8.18;;
10863;SDS011;5485;37.558;126.950;2023-06-10T04:02:51;11.65;;;8.05;;
10863;SDS011;5485;37.558;126.950;2023-06-10T04:05:18;11.05;;;8.38;;
10863;SDS011;5485;37.558;126.950;2023-06-10T04:07:48;10.88;;;7.53;;
10863;SDS011;5485;37.558;126.950;2023-06-10T04:10:15;10.38;;;7.60;;
10863;SDS011;5485;37.558;126.950;2023-06-10T04:12:42;8.45;;;7.57;;
10863;SDS011;5485;37.558;126.950;2023-06-10T04:15:09;8.60;;;7.70;;
10863;SDS011;5485;37.558;126.950;2023-06-10T04:17:37;10.45;;;7.75;;
10863;SDS011;5485;37.558;126.950;2023-06-10T04:20:04;9.23;;;8.32;;
10863;SDS011;5485;37.558;126.950;2023-06-10T04:22:33;15.63;;;8.52;;
10863;SDS011;5485;37.558;126.950;2023-06-10T04:25:00;9.40;;;8.02;;
10863;SDS011;5485;37.558;126.950;2023-06-10T04:27:27;14.52;;;8.50;;
10863;SDS011;5485;37.558;126.950;2023-06-10T04:29:53;10.32;;;8.70;;
10863;SDS011;5485;37.558;126.950;2023-06-10T04:32:20;12.68;;;8.25;;
10863;SDS011;5485;37.558;126.950;2023-06-10T04:34:49;11.45;;;10.13;;
10863;SDS011;5485;37.558;126.950;2023-06-10T04:37:16;12.13;;;8.98;;
10863;SDS011;5485;37.558;126.950;2023-06-10T04:39:43;10.38;;;8.98;;
10863;SDS011;5485;37.558;126.950;2023-06-10T04:42:10;14.75;;;10.30;;
10863;SDS011;5485;37.558;126.950;2023-06-10T04:44:37;10.50;;;9.43;;
10863;SDS011;5485;37.558;126.950;2023-06-10T04:47:09;11.02;;;9.05;;
10863;SDS011;5485;37.558;126.950;2023-06-10T04:49:36;10.93;;;9.82;;
10863;SDS011;5485;37.558;126.950;2023-06-10T04:52:06;11.07;;;10.13;;
10863;SDS011;5485;37.558;126.950;2023-06-10T04:54:33;12.77;;;9.63;;
10863;SDS011;5485;37.558;126.950;2023-06-10T04:57:00;14.48;;;9.82;;
10863;SDS011;5485;37.558;126.950;2023-06-10T04:59:27;12.32;;;8.88;;
10863;SDS011;5485;37.558;126.950;2023-06-10T05:01:57;10.77;;;9.43;;
10863;SDS011;5485;37.558;126.950;2023-06-10T05:04:30;10.68;;;9.25;;
10863;SDS011;5485;37.558;126.950;2023-06-10T05:06:57;10.85;;;8.90;;
10863;SDS011;5485;37.558;126.950;2023-06-10T05:09:24;8.80;;;7.93;;
10863;SDS011;5485;37.558;126.950;2023-06-10T05:11:51;12.57;;;7.90;;
10863;SDS011;5485;37.558;126.950;2023-06-10T05:14:19;8.93;;;8.00;;
10863;SDS011;5485;37.558;126.950;2023-06-10T05:16:48;9.70;;;7.63;;
10863;SDS011;5485;37.558;126.950;2023-06-10T05:19:15;8.95;;;7.90;;
10863;SDS011;5485;37.558;126.950;2023-06-10T05:21:43;10.38;;;7.97;;
10863;SDS011;5485;37.558;126.950;2023-06-10T05:24:11;8.63;;;7.75;;
10863;SDS011;5485;37.558;126.950;2023-06-10T05:26:38;11.05;;;7.60;;
10863;SDS011;5485;37.558;126.950;2023-06-10T05:29:07;10.05;;;8.27;;
10863;SDS011;5485;37.558;126.950;2023-06-10T05:31:35;13.38;;;7.95;;
10863;SDS011;5485;37.558;126.950;2023-06-10T05:34:02;12.02;;;8.18;;
10863;SDS011;5485;37.558;126.950;2023-06-10T05:36:29;12.90;;;8.70;;
10863;SDS011;5485;37.558;126.950;2023-06-10T05:38:59;9.95;;;7.82;;
10863;SDS011;5485;37.558;126.950;2023-06-10T05:41:26;11.23;;;7.93;;
10863;SDS011;5485;37.558;126.950;2023-06-10T05:43:53;10.23;;;8.02;;
10863;SDS011;5485;37.558;126.950;2023-06-10T05:46:20;10.35;;;8.23;;
10863;SDS011;5485;37.558;126.950;2023-06-10T05:48:47;10.07;;;8.10;;
10863;SDS011;5485;37.558;126.950;2023-06-10T05:51:14;9.60;;;8.43;;
10863;SDS011;5485;37.558;126.950;2023-06-10T05:53:41;9.80;;;7.90;;
10863;SDS011;5485;37.558;126.950;2023-06-10T05:56:09;9.27;;;8.40;;
10863;SDS011;5485;37.558;126.950;2023-06-10T05:58:36;8.52;;;7.63;;
10863;SDS011;5485;37.558;126.950;2023-06-10T06:01:03;10.73;;;8.05;;
10863;SDS011;5485;37.558;126.950;2023-06-10T06:03:34;9.02;;;7.90;;
10863;SDS011;5485;37.558;126.950;2023-06-10T06:06:04;10.15;;;8.00;;
10863;SDS011;5485;37.558;126.950;2023-06-10T06:08:31;10.32;;;8.10;;
10863;SDS011;5485;37.558;126.950;2023-06-10T06:10:58;8.30;;;7.60;;
10863;SDS011;5485;37.558;126.950;2023-06-10T06:13:25;10.85;;;8.82;;
10863;SDS011;5485;37.558;126.950;2023-06-10T06:15:51;11.25;;;7.85;;
10863;SDS011;5485;37.558;126.950;2023-06-10T06:18:19;9.88;;;7.57;;
10863;SDS011;5485;37.558;126.950;2023-06-10T06:20:45;10.35;;;8.52;;
10863;SDS011;5485;37.558;126.950;2023-06-10T06:23:12;13.90;;;8.88;;
10863;SDS011;5485;37.558;126.950;2023-06-10T06:25:39;9.55;;;7.88;;
10863;SDS011;5485;37.558;126.950;2023-06-10T06:28:06;8.20;;;7.40;;
10863;SDS011;5485;37.558;126.950;2023-06-10T06:30:34;8.95;;;7.55;;
10863;SDS011;5485;37.558;126.950;2023-06-10T06:33:01;9.95;;;7.95;;
10863;SDS011;5485;37.558;126.950;2023-06-10T06:35:32;17.05;;;9.63;;
10863;SDS011;5485;37.558;126.950;2023-06-10T06:37:59;14.65;;;10.40;;
10863;SDS011;5485;37.558;126.950;2023-06-10T06:40:26;11.23;;;9.73;;
10863;SDS011;5485;37.558;126.950;2023-06-10T06:42:53;12.32;;;10.27;;
10863;SDS011;5485;37.558;126.950;2023-06-10T06:45:20;11.57;;;10.05;;
10863;SDS011;5485;37.558;126.950;2023-06-10T06:47:47;10.95;;;9.68;;
10863;SDS011;5485;37.558;126.950;2023-06-10T06:50:17;14.05;;;10.55;;
10863;SDS011;5485;37.558;126.950;2023-06-10T06:52:44;11.75;;;10.55;;
10863;SDS011;5485;37.558;126.950;2023-06-10T06:55:11;14.95;;;12.73;;
10863;SDS011;5485;37.558;126.950;2023-06-10T06:57:38;20.67;;;15.27;;
10863;SDS011;5485;37.558;126.950;2023-06-10T07:00:05;18.00;;;16.23;;
10863;SDS011;5485;37.558;126.950;2023-06-10T07:02:34;19.85;;;17.75;;
10863;SDS011;5485;37.558;126.950;2023-06-10T07:05:01;18.98;;;17.08;;
10863;SDS011;5485;37.558;126.950;2023-06-10T07:07:29;21.77;;;17.13;;
10863;SDS011;5485;37.558;126.950;2023-06-10T07:09:55;17.13;;;15.38;;
10863;SDS011;5485;37.558;126.950;2023-06-10T07:12:22;16.30;;;14.02;;
10863;SDS011;5485;37.558;126.950;2023-06-10T07:14:50;16.92;;;12.45;;
10863;SDS011;5485;37.558;126.950;2023-06-10T07:17:17;17.42;;;12.32;;
10863;SDS011;5485;37.558;126.950;2023-06-10T07:19:45;16.90;;;11.32;;
10863;SDS011;5485;37.558;126.950;2023-06-10T07:22:12;14.60;;;11.45;;
10863;SDS011;5485;37.558;126.950;2023-06-10T07:24:38;22.02;;;11.43;;
10863;SDS011;5485;37.558;126.950;2023-06-10T07:27:06;17.10;;;10.98;;
10863;SDS011;5485;37.558;126.950;2023-06-10T07:29:33;15.05;;;9.40;;
10863;SDS011;5485;37.558;126.950;2023-06-10T07:32:02;14.98;;;8.90;;
10863;SDS011;5485;37.558;126.950;2023-06-10T07:34:29;15.48;;;9.68;;
10863;SDS011;5485;37.558;126.950;2023-06-10T07:36:56;17.88;;;9.82;;
10863;SDS011;5485;37.558;126.950;2023-06-10T07:39:23;15.15;;;10.02;;
10863;SDS011;5485;37.558;126.950;2023-06-10T07:41:50;15.35;;;9.15;;
10863;SDS011;5485;37.558;126.950;2023-06-10T07:44:19;14.52;;;8.95;;
10863;SDS011;5485;37.558;126.950;2023-06-10T07:46:46;17.85;;;9.57;;
10863;SDS011;5485;37.558;126.950;2023-06-10T07:49:13;19.10;;;9.50;;
10863;SDS011;5485;37.558;126.950;2023-06-10T07:51:40;14.88;;;9.05;;
10863;SDS011;5485;37.558;126.950;2023-06-10T07:54:07;15.43;;;9.65;;
10863;SDS011;5485;37.558;126.950;2023-06-10T07:56:34;17.55;;;8.80;;
10863;SDS011;5485;37.558;126.950;2023-06-10T07:59:00;15.02;;;9.45;;
10863;SDS011;5485;37.558;126.950;2023-06-10T08:01:28;13.07;;;7.93;;
10863;SDS011;5485;37.558;126.950;2023-06-10T08:03:56;14.82;;;8.80;;
10863;SDS011;5485;37.558;126.950;2023-06-10T08:06:23;12.18;;;7.80;;
10863;SDS011;5485;37.558;126.950;2023-06-10T08:08:50;10.90;;;8.13;;
10863;SDS011;5485;37.558;126.950;2023-06-10T08:11:17;12.73;;;9.20;;
10863;SDS011;5485;37.558;126.950;2023-06-10T08:13:44;12.98;;;8.20;;
10863;SDS011;5485;37.558;126.950;2023-06-10T08:16:11;13.55;;;8.05;;
10863;SDS011;5485;37.558;126.950;2023-06-10T08:18:38;11.52;;;8.25;;
10863;SDS011;5485;37.558;126.950;2023-06-10T08:21:05;13.93;;;8.07;;
10863;SDS011;5485;37.558;126.950;2023-06-10T08:23:32;12.07;;;8.52;;
10863;SDS011;5485;37.558;126.950;2023-06-10T08:25:59;13.23;;;8.63;;
10863;SDS011;5485;37.558;126.950;2023-06-10T08:28:26;14.55;;;8.55;;
10863;SDS011;5485;37.558;126.950;2023-06-10T08:30:52;10.85;;;8.32;;
10863;SDS011;5485;37.558;126.950;2023-06-10T08:33:19;11.50;;;8.30;;
10863;SDS011;5485;37.558;126.950;2023-06-10T08:35:46;13.85;;;8.30;;
10863;SDS011;5485;37.558;126.950;2023-06-10T08:38:13;11.23;;;7.60;;
10863;SDS011;5485;37.558;126.950;2023-06-10T08:40:41;9.18;;;7.63;;
10863;SDS011;5485;37.558;126.950;2023-06-10T08:43:10;12.82;;;8.77;;
10863;SDS011;5485;37.558;126.950;2023-06-10T08:45:51;11.90;;;8.15;;
10863;SDS011;5485;37.558;126.950;2023-06-10T08:48:26;11.50;;;8.20;;
10863;SDS011;5485;37.558;126.950;2023-06-10T08:50:58;9.25;;;8.05;;
10863;SDS011;5485;37.558;126.950;2023-06-10T08:53:26;13.50;;;8.52;;
10863;SDS011;5485;37.558;126.950;2023-06-10T08:55:55;10.48;;;8.40;;
10863;SDS011;5485;37.558;126.950;2023-06-10T08:58:28;10.73;;;7.97;;
10863;SDS011;5485;37.558;126.950;2023-06-10T09:00:59;10.48;;;7.60;;
10863;SDS011;5485;37.558;126.950;2023-06-10T09:03:26;9.90;;;7.57;;
10863;SDS011;5485;37.558;126.950;2023-06-10T09:05:53;10.10;;;7.35;;
10863;SDS011;5485;37.558;126.950;2023-06-10T09:08:22;10.10;;;8.30;;
10863;SDS011;5485;37.558;126.950;2023-06-10T09:10:49;10.27;;;9.10;;
10863;SDS011;5485;37.558;126.950;2023-06-10T09:13:20;16.15;;;9.38;;
10863;SDS011;5485;37.558;126.950;2023-06-10T09:15:47;13.57;;;9.20;;
10863;SDS011;5485;37.558;126.950;2023-06-10T09:18:19;12.43;;;9.13;;
10863;SDS011;5485;37.558;126.950;2023-06-10T09:20:46;10.98;;;9.45;;
10863;SDS011;5485;37.558;126.950;2023-06-10T09:23:13;16.13;;;9.30;;
10863;SDS011;5485;37.558;126.950;2023-06-10T09:25:42;10.75;;;9.65;;
10863;SDS011;5485;37.558;126.950;2023-06-10T09:28:15;13.65;;;9.65;;
10863;SDS011;5485;37.558;126.950;2023-06-10T09:30:42;14.38;;;9.10;;
10863;SDS011;5485;37.558;126.950;2023-06-10T09:33:10;13.57;;;8.82;;
10863;SDS011;5485;37.558;126.950;2023-06-10T09:35:49;12.07;;;9.30;;
10863;SDS011;5485;37.558;126.950;2023-06-10T09:38:19;13.38;;;9.10;;
10863;SDS011;5485;37.558;126.950;2023-06-10T09:40:48;12.05;;;9.07;;
10863;SDS011;5485;37.558;126.950;2023-06-10T09:43:16;12.95;;;9.18;;
10863;SDS011;5485;37.558;126.950;2023-06-10T09:45:43;11.90;;;9.75;;
10863;SDS011;5485;37.558;126.950;2023-06-10T09:48:14;13.73;;;9.18;;
10863;SDS011;5485;37.558;126.950;2023-06-10T09:50:42;12.98;;;9.77;;
10863;SDS011;5485;37.558;126.950;2023-06-10T09:53:10;14.23;;;10.88;;
10863;SDS011;5485;37.558;126.950;2023-06-10T09:55:37;16.23;;;10.40;;
10863;SDS011;5485;37.558;126.950;2023-06-10T09:58:05;13.85;;;10.07;;
10863;SDS011;5485;37.558;126.950;2023-06-10T10:00:33;13.02;;;9.88;;
10863;SDS011;5485;37.558;126.950;2023-06-10T10:03:00;13.35;;;10.07;;
10863;SDS011;5485;37.558;126.950;2023-06-10T10:05:27;14.40;;;10.32;;
10863;SDS011;5485;37.558;126.950;2023-06-10T10:07:55;12.27;;;9.95;;
10863;SDS011;5485;37.558;126.950;2023-06-10T10:10:22;15.48;;;11.45;;
10863;SDS011;5485;37.558;126.950;2023-06-10T10:12:51;15.70;;;10.93;;
10863;SDS011;5485;37.558;126.950;2023-06-10T10:15:25;13.57;;;9.98;;
10863;SDS011;5485;37.558;126.950;2023-06-10T10:18:00;16.70;;;9.52;;
10863;SDS011;5485;37.558;126.950;2023-06-10T10:20:33;11.80;;;9.27;;
10863;SDS011;5485;37.558;126.950;2023-06-10T10:23:05;12.15;;;9.50;;
10863;SDS011;5485;37.558;126.950;2023-06-10T10:25:40;9.77;;;8.43;;
10863;SDS011;5485;37.558;126.950;2023-06-10T10:28:09;14.23;;;9.77;;
10863;SDS011;5485;37.558;126.950;2023-06-10T10:30:41;11.98;;;8.45;;
10863;SDS011;5485;37.558;126.950;2023-06-10T10:33:16;13.75;;;9.25;;
10863;SDS011;5485;37.558;126.950;2023-06-10T10:35:47;10.27;;;9.15;;
10863;SDS011;5485;37.558;126.950;2023-06-10T10:38:17;13.13;;;9.93;;
10863;SDS011;5485;37.558;126.950;2023-06-10T10:40:45;14.48;;;10.10;;
10863;SDS011;5485;37.558;126.950;2023-06-10T10:43:13;14.68;;;10.13;;
10863;SDS011;5485;37.558;126.950;2023-06-10T10:45:45;11.57;;;9.85;;
10863;SDS011;5485;37.558;126.950;2023-06-10T10:48:23;19.65;;;10.82;;
10863;SDS011;5485;37.558;126.950;2023-06-10T10:50:58;13.35;;;10.82;;
10863;SDS011;5485;37.558;126.950;2023-06-10T10:53:25;13.60;;;10.35;;
10863;SDS011;5485;37.558;126.950;2023-06-10T10:56:13;15.55;;;10.38;;
10863;SDS011;5485;37.558;126.950;2023-06-10T10:58:40;14.20;;;10.60;;
10863;SDS011;5485;37.558;126.950;2023-06-10T11:01:11;13.32;;;10.23;;
10863;SDS011;5485;37.558;126.950;2023-06-10T11:03:43;18.00;;;11.27;;
10863;SDS011;5485;37.558;126.950;2023-06-10T11:06:18;16.10;;;10.63;;
10863;SDS011;5485;37.558;126.950;2023-06-10T11:08:45;14.70;;;10.65;;
10863;SDS011;5485;37.558;126.950;2023-06-10T11:14:29;15.60;;;10.27;;
10863;SDS011;5485;37.558;126.950;2023-06-10T11:16:41;19.33;;;10.80;;
10863;SDS011;5485;37.558;126.950;2023-06-10T11:19:30;11.82;;;9.90;;
10863;SDS011;5485;37.558;126.950;2023-06-10T11:22:07;18.27;;;12.07;;
10863;SDS011;5485;37.558;126.950;2023-06-10T11:24:41;14.18;;;10.63;;
10863;SDS011;5485;37.558;126.950;2023-06-10T11:27:17;12.73;;;11.05;;
10863;SDS011;5485;37.558;126.950;2023-06-10T11:29:55;15.55;;;11.52;;
10863;SDS011;5485;37.558;126.950;2023-06-10T11:32:29;17.08;;;11.52;;
10863;SDS011;5485;37.558;126.950;2023-06-10T11:34:59;15.85;;;11.00;;
10863;SDS011;5485;37.558;126.950;2023-06-10T11:37:30;17.63;;;11.48;;
10863;SDS011;5485;37.558;126.950;2023-06-10T11:39:57;12.60;;;11.32;;
10863;SDS011;5485;37.558;126.950;2023-06-10T11:42:27;12.23;;;10.80;;
10863;SDS011;5485;37.558;126.950;2023-06-10T11:44:55;14.65;;;11.27;;
10863;SDS011;5485;37.558;126.950;2023-06-10T11:47:22;13.70;;;10.50;;
10863;SDS011;5485;37.558;126.950;2023-06-10T11:49:58;12.10;;;10.20;;
10863;SDS011;5485;37.558;126.950;2023-06-10T11:52:31;18.48;;;10.60;;
10863;SDS011;5485;37.558;126.950;2023-06-10T11:55:03;11.93;;;9.30;;
10863;SDS011;5485;37.558;126.950;2023-06-10T11:57:33;11.57;;;9.75;;
10863;SDS011;5485;37.558;126.950;2023-06-10T12:00:05;9.63;;;8.82;;
10863;SDS011;5485;37.558;126.950;2023-06-10T12:02:35;9.32;;;8.43;;
10863;SDS011;5485;37.558;126.950;2023-06-10T12:05:12;11.38;;;8.10;;
10863;SDS011;5485;37.558;126.950;2023-06-10T12:07:40;9.43;;;8.38;;
10863;SDS011;5485;37.558;126.950;2023-06-10T12:10:07;9.15;;;8.27;;
10863;SDS011;5485;37.558;126.950;2023-06-10T12:12:36;9.68;;;8.80;;
10863;SDS011;5485;37.558;126.950;2023-06-10T12:15:03;18.77;;;8.82;;
10863;SDS011;5485;37.558;126.950;2023-06-10T12:20:06;11.35;;;9.15;;
10863;SDS011;5485;37.558;126.950;2023-06-10T12:22:38;13.95;;;9.30;;
10863;SDS011;5485;37.558;126.950;2023-06-10T12:25:09;10.13;;;9.13;;
10863;SDS011;5485;37.558;126.950;2023-06-10T12:27:38;10.20;;;9.23;;
10863;SDS011;5485;37.558;126.950;2023-06-10T12:30:06;10.18;;;9.27;;
10863;SDS011;5485;37.558;126.950;2023-06-10T12:35:08;10.90;;;9.90;;
10863;SDS011;5485;37.558;126.950;2023-06-10T12:37:53;10.98;;;9.88;;
10863;SDS011;5485;37.558;126.950;2023-06-10T12:40:39;10.82;;;8.77;;
10863;SDS011;5485;37.558;126.950;2023-06-10T12:43:06;11.70;;;9.73;;
10863;SDS011;5485;37.558;126.950;2023-06-10T12:45:34;10.75;;;9.75;;
10863;SDS011;5485;37.558;126.950;2023-06-10T12:48:08;10.13;;;9.23;;
10863;SDS011;5485;37.558;126.950;2023-06-10T12:50:43;10.95;;;9.85;;
10863;SDS011;5485;37.558;126.950;2023-06-10T12:53:15;12.05;;;8.95;;
10863;SDS011;5485;37.558;126.950;2023-06-10T12:55:42;10.82;;;9.13;;
10863;SDS011;5485;37.558;126.950;2023-06-10T12:58:11;9.63;;;8.75;;
10863;SDS011;5485;37.558;126.950;2023-06-10T13:00:39;10.13;;;9.23;;
10863;SDS011;5485;37.558;126.950;2023-06-10T13:03:07;10.20;;;9.23;;
10863;SDS011;5485;37.558;126.950;2023-06-10T13:05:35;10.13;;;8.40;;
10863;SDS011;5485;37.558;126.950;2023-06-10T13:08:04;9.65;;;8.52;;
10863;SDS011;5485;37.558;126.950;2023-06-10T13:10:32;9.00;;;8.07;;
10863;SDS011;5485;37.558;126.950;2023-06-10T13:13:00;9.77;;;8.50;;
10863;SDS011;5485;37.558;126.950;2023-06-10T13:15:28;8.82;;;8.13;;
10863;SDS011;5485;37.558;126.950;2023-06-10T13:17:55;8.30;;;7.55;;
10863;SDS011;5485;37.558;126.950;2023-06-10T13:20:22;9.57;;;8.38;;
10863;SDS011;5485;37.558;126.950;2023-06-10T13:22:48;8.60;;;7.72;;
10863;SDS011;5485;37.558;126.950;2023-06-10T13:25:15;9.48;;;8.02;;
10863;SDS011;5485;37.558;126.950;2023-06-10T13:27:42;9.13;;;8.23;;
10863;SDS011;5485;37.558;126.950;2023-06-10T13:30:09;10.13;;;8.45;;
10863;SDS011;5485;37.558;126.950;2023-06-10T13:32:37;8.52;;;7.63;;
10863;SDS011;5485;37.558;126.950;2023-06-10T13:35:04;8.68;;;7.80;;
10863;SDS011;5485;37.558;126.950;2023-06-10T13:37:32;8.63;;;7.82;;
10863;SDS011;5485;37.558;126.950;2023-06-10T13:40:00;12.10;;;8.88;;
10863;SDS011;5485;37.558;126.950;2023-06-10T13:42:28;8.80;;;7.93;;
10863;SDS011;5485;37.558;126.950;2023-06-10T13:44:55;8.52;;;7.72;;
10863;SDS011;5485;37.558;126.950;2023-06-10T13:47:22;9.02;;;8.23;;
10863;SDS011;5485;37.558;126.950;2023-06-10T13:49:52;9.32;;;8.40;;
10863;SDS011;5485;37.558;126.950;2023-06-10T13:52:19;11.68;;;8.68;;
10863;SDS011;5485;37.558;126.950;2023-06-10T13:54:46;11.95;;;9.70;;
10863;SDS011;5485;37.558;126.950;2023-06-10T13:57:12;13.50;;;10.10;;
10863;SDS011;5485;37.558;126.950;2023-06-10T13:59:39;13.18;;;10.95;;
10863;SDS011;5485;37.558;126.950;2023-06-10T14:02:11;11.77;;;10.57;;
10863;SDS011;5485;37.558;126.950;2023-06-10T14:04:39;13.80;;;10.70;;
10863;SDS011;5485;37.558;126.950;2023-06-10T14:07:06;10.88;;;9.98;;
10863;SDS011;5485;37.558;126.950;2023-06-10T14:09:33;11.07;;;9.98;;
10863;SDS011;5485;37.558;126.950;2023-06-10T14:11:59;11.45;;;10.45;;
10863;SDS011;5485;37.558;126.950;2023-06-10T14:14:28;11.48;;;10.48;;
10863;SDS011;5485;37.558;126.950;2023-06-10T14:16:55;12.77;;;11.43;;
10863;SDS011;5485;37.558;126.950;2023-06-10T14:19:22;12.52;;;11.38;;
10863;SDS011;5485;37.558;126.950;2023-06-10T14:21:49;13.15;;;11.80;;
10863;SDS011;5485;37.558;126.950;2023-06-10T14:24:18;13.15;;;11.85;;
10863;SDS011;5485;37.558;126.950;2023-06-10T14:26:45;12.77;;;11.65;;
10863;SDS011;5485;37.558;126.950;2023-06-10T14:29:12;14.32;;;12.80;;
10863;SDS011;5485;37.558;126.950;2023-06-10T14:31:43;13.93;;;12.32;;
10863;SDS011;5485;37.558;126.950;2023-06-10T14:34:13;14.57;;;13.02;;
10863;SDS011;5485;37.558;126.950;2023-06-10T14:36:40;13.15;;;12.02;;
10863;SDS011;5485;37.558;126.950;2023-06-10T14:39:07;15.10;;;12.98;;
10863;SDS011;5485;37.558;126.950;2023-06-10T14:41:34;14.98;;;13.45;;